Time;durP1;ratioP1;P1;durP2;ratioP2;P2;SDS_P1;SDS_P2;PMS_P1;PMS_P2;Temp;Humidity;BMP_temperature;BMP_pressure;BME280_temperature;BME280_humidity;BME280_pressure;Samples;Min_cycle;Max_cycle;Signal;HPM_P1;HPM_P2
2023/12/20 04:02:25;;;;;;;1.03;0.13;;;23.30;27.70;;;;;;5129220;22;46124;-84
2023/12/20 04:04:53;;;;;;;0.30;0.10;;;23.30;27.70;;;;;;4974389;28;44769;-82
2023/12/20 04:07:21;;;;;;;0.40;0.10;;;23.30;27.70;;;;;;4988543;28;44781;-87
2023/12/20 04:09:48;;;;;;;0.10;0.10;;;23.30;27.70;;;;;;4978432;28;46148;-83
2023/12/20 04:12:13;;;;;;;0.00;0.00;;;23.30;27.70;;;;;;4995098;28;45636;-84
2023/12/20 04:14:39;;;;;;;0.10;0.10;;;23.30;27.70;;;;;;5000506;28;45367;-82
2023/12/20 04:17:06;;;;;;;0.20;0.20;;;23.30;27.70;;;;;;5015096;28;45218;-82
2023/12/20 04:19:31;;;;;;;0.17;0.15;;;23.30;27.70;;;;;;4998240;28;47163;-84
2023/12/20 04:21:57;;;;;;;0.10;0.10;;;23.30;27.70;;;;;;4969362;28;45127;-83
2023/12/20 04:24:23;;;;;;;0.30;0.10;;;23.30;27.80;;;;;;4989960;28;44885;-83
2023/12/20 04:26:49;;;;;;;0.20;0.10;;;23.30;27.80;;;;;;4976229;28;45245;-83
2023/12/20 04:29:15;;;;;;;0.30;0.20;;;23.30;27.80;;;;;;4978924;28;46757;-86
2023/12/20 04:31:41;;;;;;;0.20;0.10;;;23.30;27.80;;;;;;4973628;28;45378;-79
2023/12/20 04:34:07;;;;;;;0.10;0.10;;;23.30;27.80;;;;;;5001494;28;45503;-82
2023/12/20 04:36:34;;;;;;;0.10;0.10;;;23.20;27.80;;;;;;4989134;28;45358;-79
2023/12/20 04:39:00;;;;;;;0.25;0.10;;;23.30;27.80;;;;;;4993653;28;45180;-83
2023/12/20 04:41:27;;;;;;;0.30;0.10;;;23.20;27.80;;;;;;5011384;28;45636;-82
2023/12/20 04:43:53;;;;;;;0.20;0.17;;;23.20;27.80;;;;;;4967984;28;45673;-80
2023/12/20 04:46:18;;;;;;;0.10;0.10;;;23.20;27.80;;;;;;4980174;28;46029;-80
2023/12/20 04:48:44;;;;;;;0.10;0.10;;;23.20;27.80;;;;;;4987467;28;46549;-81
2023/12/20 04:51:10;;;;;;;0.10;0.10;;;23.20;27.80;;;;;;4964964;28;45394;-85
2023/12/20 04:53:36;;;;;;;0.10;0.10;;;23.20;27.80;;;;;;4985102;28;45183;-85
2023/12/20 04:56:03;;;;;;;0.20;0.10;;;23.20;27.90;;;;;;4998711;28;45176;-80
2023/12/20 04:58:29;;;;;;;0.10;0.10;;;23.10;27.80;;;;;;4995563;28;46326;-80
2023/12/20 05:00:55;;;;;;;0.50;0.10;;;23.10;27.90;;;;;;4991474;28;45445;-81
2023/12/20 05:03:21;;;;;;;0.15;0.10;;;23.10;27.80;;;;;;4991559;28;45474;-80
2023/12/20 05:05:46;;;;;;;0.30;0.10;;;23.20;27.90;;;;;;4993092;28;45015;-84
2023/12/20 05:08:12;;;;;;;0.20;0.20;;;23.10;27.80;;;;;;4985839;28;45651;-88
2023/12/20 05:10:37;;;;;;;0.60;0.10;;;23.10;27.90;;;;;;4973332;28;44841;-84
2023/12/20 05:13:03;;;;;;;0.30;0.10;;;23.10;27.90;;;;;;4961317;28;45599;-85
2023/12/20 05:15:29;;;;;;;0.30;0.10;;;23.10;27.90;;;;;;4991319;28;45253;-84
2023/12/20 05:17:56;;;;;;;0.20;0.17;;;23.10;27.90;;;;;;4965429;28;46382;-81
2023/12/20 05:20:21;;;;;;;0.30;0.10;;;23.10;27.90;;;;;;4991822;28;45302;-86
2023/12/20 05:22:48;;;;;;;0.10;0.10;;;23.10;27.90;;;;;;4978433;28;45054;-84
2023/12/20 05:25:13;;;;;;;0.28;0.10;;;23.10;27.90;;;;;;4980350;28;45312;-84
2023/12/20 05:27:40;;;;;;;0.10;0.10;;;23.10;27.90;;;;;;4982181;28;46216;-81
2023/12/20 05:30:06;;;;;;;0.10;0.10;;;23.10;28.00;;;;;;4994261;28;45222;-85
2023/12/20 05:32:33;;;;;;;0.10;0.10;;;23.10;28.00;;;;;;4979068;28;45319;-83
2023/12/20 05:34:58;;;;;;;0.20;0.10;;;23.10;28.00;;;;;;5010590;28;44919;-85
2023/12/20 05:37:24;;;;;;;0.00;0.00;;;23.10;28.00;;;;;;4991458;28;45587;-82
2023/12/20 05:39:50;;;;;;;0.10;0.03;;;23.10;28.00;;;;;;4994146;28;45304;-82
2023/12/20 05:42:16;;;;;;;0.20;0.10;;;23.00;28.00;;;;;;4979158;28;44804;-86
2023/12/20 05:44:42;;;;;;;0.20;0.10;;;23.00;28.00;;;;;;5002832;28;45124;-85
2023/12/20 05:47:09;;;;;;;0.00;0.00;;;23.00;28.00;;;;;;4991140;28;45567;-83
2023/12/20 05:49:36;;;;;;;0.10;0.10;;;23.00;28.00;;;;;;5010786;28;45182;-85
2023/12/20 05:52:01;;;;;;;0.10;0.10;;;23.00;28.00;;;;;;4997005;28;45302;-89
2023/12/20 05:54:28;;;;;;;0.10;0.10;;;23.00;28.50;;;;;;5010324;28;44951;-84
2023/12/20 05:56:54;;;;;;;0.20;0.10;;;22.90;28.00;;;;;;5009569;28;45506;-79
2023/12/20 05:59:19;;;;;;;0.20;0.20;;;23.00;28.10;;;;;;4958440;28;45138;-85
2023/12/20 06:01:45;;;;;;;0.40;0.10;;;22.90;28.10;;;;;;4992171;28;45537;-83
2023/12/20 06:04:11;;;;;;;0.30;0.20;;;22.90;28.10;;;;;;4997165;28;45194;-83
2023/12/20 06:06:43;;;;;;;0.20;0.20;;;22.90;28.10;;;;;;4978434;28;47074;-81
2023/12/20 06:09:09;;;;;;;0.20;0.20;;;22.90;28.10;;;;;;4983525;28;45502;-84
2023/12/20 06:11:34;;;;;;;0.20;0.20;;;22.90;28.20;;;;;;4979798;28;45368;-83
2023/12/20 06:14:00;;;;;;;0.20;0.13;;;22.90;28.10;;;;;;4977897;28;45243;-84
2023/12/20 06:16:30;;;;;;;0.10;0.10;;;22.90;28.10;;;;;;4959224;28;66459;-82
2023/12/20 06:18:56;;;;;;;0.17;0.10;;;22.90;28.20;;;;;;4980817;28;45628;-82
2023/12/20 06:21:22;;;;;;;0.10;0.10;;;22.90;28.20;;;;;;4975982;28;45141;-80
2023/12/20 06:23:48;;;;;;;0.20;0.20;;;22.90;28.20;;;;;;4961624;28;45077;-85
2023/12/20 06:26:14;;;;;;;0.50;0.20;;;22.90;28.20;;;;;;4966546;28;46704;-84
2023/12/20 06:28:40;;;;;;;0.65;0.30;;;22.90;28.20;;;;;;4979340;28;44957;-83
2023/12/20 06:31:06;;;;;;;0.30;0.20;;;22.90;28.20;;;;;;4990447;28;44714;-82
2023/12/20 06:33:32;;;;;;;0.17;0.10;;;22.90;28.20;;;;;;4978423;28;45415;-85
2023/12/20 06:35:57;;;;;;;0.30;0.20;;;22.90;28.20;;;;;;4976615;28;45287;-83
2023/12/20 06:38:23;;;;;;;0.60;0.20;;;22.80;28.20;;;;;;4984774;28;45181;-88
2023/12/20 06:40:48;;;;;;;0.53;0.27;;;22.80;28.20;;;;;;4973334;28;45205;-81
2023/12/20 06:43:14;;;;;;;0.20;0.20;;;22.90;28.30;;;;;;4989277;28;45608;-81
2023/12/20 06:45:43;;;;;;;0.10;0.10;;;22.80;28.20;;;;;;4950100;28;46224;-92
2023/12/20 06:48:11;;;;;;;0.20;0.20;;;22.80;28.20;;;;;;4981911;28;45494;-84
2023/12/20 06:50:39;;;;;;;0.28;0.20;;;22.80;28.20;;;;;;4948646;28;45080;-85
2023/12/20 06:53:06;;;;;;;0.28;0.20;;;22.80;28.30;;;;;;4982330;28;45294;-83
2023/12/20 06:55:37;;;;;;;0.30;0.10;;;22.80;28.20;;;;;;4959706;28;45993;-93
2023/12/20 06:58:03;;;;;;;0.40;0.20;;;22.80;28.30;;;;;;4983672;28;45312;-88
2023/12/20 07:00:30;;;;;;;0.20;0.20;;;22.80;28.30;;;;;;4963924;28;45358;-84
2023/12/20 07:02:57;;;;;;;0.22;0.20;;;22.80;28.30;;;;;;4979325;28;44888;-82
2023/12/20 07:05:22;;;;;;;0.13;0.13;;;22.80;28.30;;;;;;4982158;28;45484;-85
2023/12/20 07:07:48;;;;;;;0.50;0.30;;;22.80;28.30;;;;;;4979508;28;45244;-85
2023/12/20 07:10:13;;;;;;;0.17;0.17;;;22.80;28.30;;;;;;4954958;28;45422;-87
2023/12/20 07:12:40;;;;;;;0.40;0.10;;;22.80;28.30;;;;;;4960497;28;45273;-86
2023/12/20 07:15:14;;;;;;;0.25;0.25;;;22.70;28.30;;;;;;4982363;28;46262;-88
2023/12/20 07:17:40;;;;;;;0.20;0.20;;;22.70;28.30;;;;;;4976644;28;45306;-85
2023/12/20 07:20:11;;;;;;;0.40;0.20;;;22.80;28.30;;;;;;4964791;28;45355;-93
2023/12/20 07:22:38;;;;;;;0.10;0.10;;;22.70;28.30;;;;;;4967283;28;45003;-89
2023/12/20 07:25:06;;;;;;;0.47;0.20;;;22.70;28.30;;;;;;4986457;28;45417;-90
2023/12/20 07:27:32;;;;;;;0.20;0.10;;;22.70;28.30;;;;;;4948566;28;45318;-85
2023/12/20 07:29:58;;;;;;;0.10;0.10;;;22.70;28.30;;;;;;4986400;28;45429;-84
2023/12/20 07:32:24;;;;;;;0.10;0.10;;;22.70;28.30;;;;;;4951327;28;44888;-82
2023/12/20 07:34:50;;;;;;;0.28;0.25;;;22.70;28.40;;;;;;4972538;28;45407;-83
2023/12/20 07:37:16;;;;;;;0.20;0.20;;;22.70;28.40;;;;;;4987627;28;45155;-89
2023/12/20 07:39:41;;;;;;;0.30;0.30;;;22.70;28.40;;;;;;4967724;28;45205;-79
2023/12/20 07:42:07;;;;;;;0.20;0.17;;;22.70;28.40;;;;;;4961808;28;44912;-83
2023/12/20 07:44:33;;;;;;;0.17;0.17;;;22.70;28.40;;;;;;4974862;28;46167;-79
2023/12/20 07:47:01;;;;;;;0.45;0.20;;;22.70;28.40;;;;;;4993986;28;45534;-83
2023/12/20 07:49:27;;;;;;;0.20;0.20;;;22.70;28.40;;;;;;4982264;28;45456;-86
2023/12/20 07:51:52;;;;;;;0.23;0.20;;;22.70;28.40;;;;;;4974524;28;44987;-81
2023/12/20 07:54:18;;;;;;;0.30;0.30;;;22.70;28.40;;;;;;4979603;28;45521;-84
2023/12/20 07:56:45;;;;;;;0.30;0.30;;;22.70;28.40;;;;;;4959596;28;45516;-81
2023/12/20 07:59:11;;;;;;;0.30;0.20;;;22.70;28.40;;;;;;4967565;28;45317;-85
2023/12/20 08:01:37;;;;;;;0.20;0.20;;;22.60;28.40;;;;;;4992456;28;45322;-87
2023/12/20 08:04:03;;;;;;;0.28;0.20;;;22.60;28.40;;;;;;4979180;28;45097;-86
2023/12/20 08:06:29;;;;;;;0.20;0.20;;;22.60;28.40;;;;;;4933655;28;45374;-82
2023/12/20 08:08:55;;;;;;;0.27;0.23;;;22.60;28.40;;;;;;4928463;28;44801;-81
2023/12/20 08:11:21;;;;;;;0.40;0.20;;;22.60;28.40;;;;;;4942014;28;45259;-83
2023/12/20 08:13:46;;;;;;;0.20;0.10;;;22.60;28.50;;;;;;4930624;28;45857;-83
2023/12/20 08:16:13;;;;;;;0.20;0.20;;;22.60;28.50;;;;;;4962051;28;45188;-85
2023/12/20 08:18:39;;;;;;;0.20;0.20;;;22.60;28.50;;;;;;4937323;28;45227;-83
2023/12/20 08:21:07;;;;;;;0.35;0.30;;;22.60;28.50;;;;;;4977119;28;45013;-83
2023/12/20 08:23:34;;;;;;;0.20;0.20;;;22.60;28.50;;;;;;4961688;28;45416;-84
2023/12/20 08:26:06;;;;;;;0.10;0.10;;;22.50;28.50;;;;;;4974917;28;45179;-84
2023/12/20 08:28:32;;;;;;;0.20;0.20;;;22.60;28.60;;;;;;4917378;28;45492;-93
2023/12/20 08:31:01;;;;;;;0.40;0.40;;;22.60;28.60;;;;;;4967736;28;45345;-89
2023/12/20 08:33:27;;;;;;;0.30;0.30;;;22.50;28.60;;;;;;4965734;28;45223;-81
2023/12/20 08:35:52;;;;;;;0.27;0.20;;;22.60;28.60;;;;;;4929900;28;45339;-85
2023/12/20 08:38:18;;;;;;;0.30;0.30;;;22.50;28.60;;;;;;4944596;28;45388;-87
2023/12/20 08:40:45;;;;;;;0.47;0.30;;;22.50;28.60;;;;;;4966084;28;45234;-86
2023/12/20 08:43:10;;;;;;;0.23;0.23;;;22.50;28.60;;;;;;4948174;28;46178;-90
2023/12/20 08:45:38;;;;;;;0.30;0.30;;;22.50;28.60;;;;;;4934452;28;45280;-86
2023/12/20 08:48:04;;;;;;;0.20;0.20;;;22.50;28.60;;;;;;4956142;28;45218;-81
2023/12/20 08:50:30;;;;;;;0.27;0.27;;;22.50;28.70;;;;;;4944856;28;45174;-85
2023/12/20 08:52:56;;;;;;;0.40;0.20;;;22.50;28.70;;;;;;4932548;28;46108;-81
2023/12/20 08:55:21;;;;;;;0.20;0.20;;;22.50;28.70;;;;;;4963163;28;45292;-81
2023/12/20 08:57:47;;;;;;;0.55;0.30;;;22.50;28.70;;;;;;4937544;28;45245;-87
2023/12/20 09:00:20;;;;;;;0.20;0.20;;;22.50;28.70;;;;;;4962405;28;45314;-95
2023/12/20 09:02:48;;;;;;;0.20;0.20;;;22.50;28.70;;;;;;4994177;28;45344;-85
2023/12/20 09:05:13;;;;;;;0.23;0.23;;;22.50;28.70;;;;;;4949861;28;45208;-84
2023/12/20 09:07:39;;;;;;;0.27;0.27;;;22.50;28.70;;;;;;4968339;28;45355;-81
2023/12/20 09:10:06;;;;;;;0.30;0.30;;;22.40;28.70;;;;;;4957271;28;45299;-87
2023/12/20 09:12:39;;;;;;;0.20;0.20;;;22.40;28.70;;;;;;4956938;28;45440;-87
2023/12/20 09:15:05;;;;;;;0.32;0.32;;;22.50;28.80;;;;;;4985664;28;45204;-92
2023/12/20 09:17:31;;;;;;;0.30;0.20;;;22.40;28.80;;;;;;4964816;28;44685;-87
2023/12/20 09:19:57;;;;;;;0.57;0.38;;;22.40;28.80;;;;;;5013803;28;45181;-89
2023/12/20 09:22:23;;;;;;;0.40;0.40;;;22.40;28.80;;;;;;4996606;28;45530;-83
2023/12/20 09:24:49;;;;;;;1.05;0.90;;;22.40;28.80;;;;;;4986103;28;44697;-86
2023/12/20 09:27:14;;;;;;;1.30;1.00;;;22.30;28.80;;;;;;4969525;28;45275;-84
2023/12/20 09:29:40;;;;;;;1.80;1.20;;;22.40;28.80;;;;;;4951424;28;45713;-85
2023/12/20 09:32:06;;;;;;;1.48;1.10;;;22.40;28.80;;;;;;4975181;28;45802;-84
2023/12/20 09:34:31;;;;;;;2.15;1.30;;;22.30;28.90;;;;;;4984983;28;45367;-81
2023/12/20 09:36:57;;;;;;;1.23;0.97;;;22.30;28.90;;;;;;4996241;28;45305;-84
2023/12/20 09:39:23;;;;;;;1.30;1.00;;;22.30;28.90;;;;;;5002356;28;45372;-81
2023/12/20 09:42:01;;;;;;;1.38;0.90;;;22.30;28.90;;;;;;4968524;28;46276;-84
2023/12/20 09:44:26;;;;;;;1.77;0.90;;;22.30;29.00;;;;;;4967850;28;45426;-84
2023/12/20 09:46:52;;;;;;;1.40;0.90;;;22.40;29.00;;;;;;4996401;28;45274;-84
2023/12/20 09:49:18;;;;;;;0.98;0.70;;;22.30;29.00;;;;;;4989803;28;45434;-88
2023/12/20 09:51:44;;;;;;;1.63;0.80;;;22.30;29.00;;;;;;4993891;28;45517;-85
2023/12/20 09:54:10;;;;;;;1.10;0.70;;;22.30;29.10;;;;;;4988861;28;45572;-86
2023/12/20 09:56:37;;;;;;;1.30;0.73;;;22.40;29.10;;;;;;4964530;28;45534;-86
2023/12/20 09:59:03;;;;;;;1.00;0.70;;;22.40;29.20;;;;;;4994392;28;45220;-83
2023/12/20 10:01:29;;;;;;;1.20;0.60;;;22.30;29.10;;;;;;4988123;28;46189;-85
2023/12/20 10:03:54;;;;;;;0.70;0.60;;;22.30;29.20;;;;;;4987828;28;45131;-85
2023/12/20 10:06:21;;;;;;;1.40;0.73;;;22.40;29.20;;;;;;4983878;28;45319;-83
2023/12/20 10:08:47;;;;;;;1.10;0.60;;;22.40;29.20;;;;;;4987399;28;44826;-87
2023/12/20 10:11:13;;;;;;;2.20;0.60;;;22.40;29.20;;;;;;5007103;28;46795;-87
2023/12/20 10:13:41;;;;;;;1.02;0.52;;;22.40;29.20;;;;;;4946341;28;45233;-80
2023/12/20 10:16:07;;;;;;;1.23;0.70;;;22.40;29.20;;;;;;4945548;28;45392;-83
2023/12/20 10:18:33;;;;;;;1.10;0.50;;;22.50;29.30;;;;;;4960439;28;45568;-88
2023/12/20 10:20:59;;;;;;;1.30;0.70;;;22.50;29.30;;;;;;4990619;28;45542;-81
2023/12/20 10:23:24;;;;;;;1.10;0.60;;;22.50;29.30;;;;;;4983326;28;45263;-86
2023/12/20 10:25:58;;;;;;;0.90;0.57;;;22.50;29.30;;;;;;4963030;28;45305;-83
2023/12/20 10:28:27;;;;;;;1.02;0.60;;;22.50;29.30;;;;;;4957204;28;45200;-81
2023/12/20 10:30:53;;;;;;;0.73;0.60;;;22.50;29.30;;;;;;4984528;28;45316;-85
2023/12/20 10:33:25;;;;;;;1.35;0.60;;;22.50;29.30;;;;;;4960754;28;45169;-81
2023/12/20 10:35:51;;;;;;;1.17;0.77;;;22.50;29.30;;;;;;4995058;28;45250;-84
2023/12/20 10:38:21;;;;;;;1.73;0.60;;;22.60;29.40;;;;;;5016226;28;45643;-82
2023/12/20 10:40:47;;;;;;;1.33;0.68;;;22.60;29.40;;;;;;4975142;28;45357;-81
2023/12/20 10:43:14;;;;;;;1.85;0.70;;;22.60;29.40;;;;;;4997824;28;45271;-81
2023/12/20 10:45:45;;;;;;;1.58;0.73;;;22.60;29.40;;;;;;4982307;28;45270;-94
2023/12/20 10:48:11;;;;;;;1.20;0.70;;;22.60;29.40;;;;;;4956959;28;45303;-82
2023/12/20 10:50:40;;;;;;;2.22;0.80;;;22.60;29.40;;;;;;4931784;28;46225;-85
2023/12/20 10:53:06;;;;;;;1.20;0.70;;;22.60;29.40;;;;;;4955988;28;45142;-83
2023/12/20 10:55:33;;;;;;;1.45;0.70;;;22.60;29.40;;;;;;4971911;28;45210;-81
2023/12/20 10:58:03;;;;;;;1.60;0.70;;;22.70;29.40;;;;;;4972597;28;45348;-90
2023/12/20 11:00:31;;;;;;;1.33;0.80;;;22.70;29.40;;;;;;4974941;28;45351;-84
2023/12/20 11:03:02;;;;;;;1.48;0.65;;;22.70;29.40;;;;;;4956272;28;45326;-85
2023/12/20 11:05:50;;;;;;;2.43;0.60;;;22.70;29.40;;;;;;4969499;28;45164;-88
2023/12/20 11:08:41;;;;;;;1.55;0.80;;;22.70;29.30;;;;;;4989378;28;44720;-88
2023/12/20 11:11:30;;;;;;;1.60;0.70;;;22.70;29.30;;;;;;4966850;28;46068;-80
2023/12/20 11:14:05;;;;;;;2.15;0.70;;;22.70;29.40;;;;;;4984367;28;44704;-83
2023/12/20 11:16:37;;;;;;;4.30;0.80;;;22.80;29.40;;;;;;4974231;28;45149;-80
2023/12/20 11:19:05;;;;;;;1.90;0.70;;;22.80;29.40;;;;;;4966192;28;45307;-83
2023/12/20 11:21:31;;;;;;;2.13;0.80;;;22.80;29.40;;;;;;4959276;28;46113;-80
2023/12/20 11:23:56;;;;;;;2.50;1.10;;;22.80;29.40;;;;;;4950991;28;45336;-87
2023/12/20 11:26:26;;;;;;;2.20;1.20;;;22.80;29.40;;;;;;4975154;28;45246;-81
2023/12/20 11:28:52;;;;;;;2.90;1.27;;;22.90;29.40;;;;;;4948694;28;45299;-92
2023/12/20 11:31:19;;;;;;;2.00;1.15;;;22.90;29.40;;;;;;4975192;28;45368;-86
2023/12/20 11:33:48;;;;;;;2.72;1.40;;;22.90;29.40;;;;;;4939519;28;45404;-85
2023/12/20 11:36:16;;;;;;;3.30;1.40;;;22.90;29.40;;;;;;4964499;28;45182;-87
2023/12/20 11:39:05;;;;;;;2.05;1.15;;;22.90;29.40;;;;;;4969747;28;45290;-87
2023/12/20 11:41:31;;;;;;;2.27;1.20;;;22.90;29.40;;;;;;4957809;28;46198;-83
2023/12/20 11:43:58;;;;;;;3.05;1.30;;;23.00;29.40;;;;;;4952201;28;45353;-85
2023/12/20 11:46:24;;;;;;;2.28;1.20;;;23.00;29.40;;;;;;4991506;28;45558;-86
2023/12/20 11:48:49;;;;;;;2.40;1.23;;;23.00;29.50;;;;;;4967661;28;44780;-81
2023/12/20 11:51:15;;;;;;;1.75;1.05;;;23.00;29.40;;;;;;4995107;28;46474;-87
2023/12/20 11:53:44;;;;;;;1.30;0.85;;;23.10;29.40;;;;;;4980257;28;45245;-81
2023/12/20 11:56:11;;;;;;;1.98;1.00;;;23.00;29.40;;;;;;4987287;28;45258;-87
2023/12/20 11:58:37;;;;;;;1.57;0.90;;;23.10;29.40;;;;;;4958179;28;45197;-85
2023/12/20 12:01:04;;;;;;;2.15;0.88;;;23.10;29.40;;;;;;4963947;28;45088;-85
2023/12/20 12:03:30;;;;;;;2.22;0.98;;;23.10;29.40;;;;;;4985556;28;44705;-84
2023/12/20 12:05:56;;;;;;;1.42;0.98;;;23.10;29.40;;;;;;4974293;28;45247;-83
2023/12/20 12:08:22;;;;;;;3.77;1.20;;;23.20;29.40;;;;;;4984369;28;44766;-81
2023/12/20 12:10:47;;;;;;;1.90;0.90;;;23.20;29.40;;;;;;4971726;28;45514;-86
2023/12/20 12:13:14;;;;;;;1.93;0.90;;;23.20;29.40;;;;;;4972975;28;45903;-84
2023/12/20 12:15:43;;;;;;;1.98;0.93;;;23.30;29.40;;;;;;4964340;28;45258;-84
2023/12/20 12:18:10;;;;;;;1.65;0.90;;;23.30;29.40;;;;;;4953733;28;44957;-86
2023/12/20 12:20:36;;;;;;;2.27;0.90;;;23.30;29.40;;;;;;4988283;28;46250;-80
2023/12/20 12:23:03;;;;;;;3.00;1.00;;;23.30;29.40;;;;;;4991171;28;44806;-87
2023/12/20 12:25:31;;;;;;;1.67;0.90;;;23.30;29.30;;;;;;4961410;28;45316;-87
2023/12/20 12:27:58;;;;;;;1.58;0.85;;;23.40;29.30;;;;;;4974654;28;45395;-85
2023/12/20 12:30:23;;;;;;;1.33;0.75;;;23.40;29.30;;;;;;4963375;28;46063;-85
2023/12/20 12:32:50;;;;;;;2.25;0.90;;;23.40;29.30;;;;;;4955953;28;45237;-82
2023/12/20 12:35:16;;;;;;;2.17;1.00;;;23.40;29.20;;;;;;4969464;28;45255;-88
2023/12/20 12:37:42;;;;;;;1.70;0.80;;;23.40;29.20;;;;;;4988564;28;44810;-88
2023/12/20 12:40:14;;;;;;;1.38;0.90;;;23.50;29.30;;;;;;4983224;28;46407;-83
2023/12/20 12:42:40;;;;;;;1.83;0.90;;;23.50;29.20;;;;;;4997346;28;45448;-85
2023/12/20 12:45:07;;;;;;;1.92;0.80;;;23.50;29.20;;;;;;5012070;28;45432;-94
2023/12/20 12:47:33;;;;;;;1.95;0.82;;;23.50;29.20;;;;;;4967716;28;45200;-85
2023/12/20 12:49:59;;;;;;;1.60;0.80;;;23.60;29.10;;;;;;5013209;28;46484;-84
2023/12/20 12:52:26;;;;;;;2.38;0.95;;;23.60;29.10;;;;;;4981095;28;44686;-85
2023/12/20 12:54:52;;;;;;;1.83;0.73;;;23.60;29.00;;;;;;4975390;28;45266;-83
2023/12/20 12:57:18;;;;;;;1.23;0.68;;;23.70;29.10;;;;;;4966359;28;45662;-85
2023/12/20 12:59:46;;;;;;;2.27;0.93;;;23.70;29.00;;;;;;4952750;28;47132;-82
2023/12/20 13:02:15;;;;;;;1.98;0.80;;;23.70;29.00;;;;;;4952699;28;44830;-83
2023/12/20 13:04:42;;;;;;;1.63;0.80;;;23.70;29.00;;;;;;4951462;28;44695;-81
2023/12/20 13:07:10;;;;;;;2.20;0.90;;;23.70;28.90;;;;;;5000628;28;45198;-84
2023/12/20 13:09:37;;;;;;;2.10;1.00;;;23.70;28.90;;;;;;4970656;28;45303;-85
2023/12/20 13:12:05;;;;;;;3.55;0.90;;;23.80;28.90;;;;;;4994380;28;44708;-83
2023/12/20 13:14:36;;;;;;;2.55;1.00;;;23.80;28.90;;;;;;4949042;28;45314;-85
2023/12/20 13:17:03;;;;;;;1.98;0.80;;;23.80;28.80;;;;;;4963518;28;45333;-83
2023/12/20 13:19:30;;;;;;;1.92;0.85;;;23.80;28.80;;;;;;4974706;28;46241;-84
2023/12/20 13:22:01;;;;;;;1.52;0.68;;;23.90;28.80;;;;;;4998732;28;45375;-82
2023/12/20 13:24:28;;;;;;;2.20;1.00;;;23.90;28.90;;;;;;4974949;28;44843;-83
2023/12/20 13:26:54;;;;;;;2.27;0.87;;;23.90;28.80;;;;;;4975325;28;45224;-81
2023/12/20 13:29:20;;;;;;;1.48;0.80;;;23.90;28.80;;;;;;4969462;28;45325;-79
2023/12/20 13:31:46;;;;;;;5.25;1.05;;;23.90;28.80;;;;;;4969951;28;45186;-83
2023/12/20 13:34:16;;;;;;;2.20;1.02;;;23.90;28.80;;;;;;4994329;28;45468;-82
2023/12/20 13:36:45;;;;;;;2.17;0.88;;;23.90;28.70;;;;;;4971819;28;44683;-80
2023/12/20 13:39:12;;;;;;;1.90;0.97;;;24.00;28.70;;;;;;4971049;28;45111;-81
2023/12/20 13:41:37;;;;;;;2.40;0.85;;;24.00;28.70;;;;;;4968924;28;44626;-82
2023/12/20 13:44:04;;;;;;;1.53;1.00;;;24.00;28.70;;;;;;4972422;28;45488;-87
2023/12/20 13:46:31;;;;;;;1.83;0.87;;;24.00;28.70;;;;;;4965046;28;44701;-79
2023/12/20 13:48:57;;;;;;;2.20;0.70;;;24.00;28.70;;;;;;4986357;28;46788;-80
2023/12/20 13:51:23;;;;;;;2.15;0.88;;;24.00;28.70;;;;;;4984492;28;45201;-79
2023/12/20 13:53:49;;;;;;;1.20;0.80;;;24.10;28.70;;;;;;4976345;28;45257;-83
2023/12/20 13:56:39;;;;;;;1.67;0.70;;;24.10;28.60;;;;;;4990219;28;45763;-87
2023/12/20 13:59:06;;;;;;;1.80;0.90;;;24.10;28.60;;;;;;4983225;28;46391;-80
2023/12/20 14:01:32;;;;;;;1.87;0.90;;;24.10;28.70;;;;;;4964775;28;45299;-82
2023/12/20 14:03:58;;;;;;;2.67;0.82;;;24.10;28.60;;;;;;4986581;28;45435;-90
2023/12/20 14:06:23;;;;;;;1.77;0.60;;;24.00;28.60;;;;;;4953671;28;45188;-83
2023/12/20 14:08:49;;;;;;;2.10;0.80;;;24.10;28.60;;;;;;4985536;28;45382;-82
2023/12/20 14:11:15;;;;;;;2.00;0.77;;;24.10;28.50;;;;;;4964416;28;45258;-84
2023/12/20 14:13:41;;;;;;;1.40;0.80;;;24.10;28.50;;;;;;4986803;28;44677;-83
2023/12/20 14:16:07;;;;;;;1.13;0.70;;;24.10;28.50;;;;;;4981783;28;45196;-82
2023/12/20 14:18:33;;;;;;;3.50;1.10;;;24.10;28.50;;;;;;4976924;28;46037;-82
2023/12/20 14:20:59;;;;;;;1.50;0.77;;;24.10;28.50;;;;;;4983420;28;45184;-82
2023/12/20 14:23:25;;;;;;;1.67;0.98;;;24.10;28.50;;;;;;4983756;28;45172;-83
2023/12/20 14:25:51;;;;;;;1.63;0.70;;;24.10;28.50;;;;;;4998021;28;45264;-84
2023/12/20 14:28:19;;;;;;;3.37;0.93;;;24.10;28.40;;;;;;4965098;28;45524;-86
2023/12/20 14:30:46;;;;;;;1.73;0.80;;;24.10;28.40;;;;;;4979039;28;45215;-82
2023/12/20 14:33:12;;;;;;;2.40;1.00;;;24.10;28.40;;;;;;4964886;28;44675;-84
2023/12/20 14:35:38;;;;;;;1.75;0.77;;;24.10;28.40;;;;;;4953361;28;45206;-84
2023/12/20 14:38:04;;;;;;;2.20;1.00;;;24.10;28.40;;;;;;4967323;28;48294;-83
2023/12/20 14:40:30;;;;;;;2.28;0.93;;;24.10;28.40;;;;;;4970834;28;45277;-83
2023/12/20 14:42:56;;;;;;;1.50;0.90;;;24.10;28.40;;;;;;5002434;28;45101;-85
2023/12/20 14:45:22;;;;;;;1.60;0.75;;;24.10;28.40;;;;;;4966175;28;45456;-80
2023/12/20 14:47:49;;;;;;;1.83;0.93;;;24.10;28.40;;;;;;4950907;28;46745;-82
2023/12/20 14:50:18;;;;;;;1.88;0.80;;;24.10;28.40;;;;;;4965969;28;45582;-83
2023/12/20 14:52:47;;;;;;;2.80;1.13;;;24.10;28.40;;;;;;4997680;28;44684;-86
2023/12/20 14:55:22;;;;;;;1.42;0.80;;;24.10;28.40;;;;;;4966167;28;45204;-91
2023/12/20 14:57:49;;;;;;;2.03;0.80;;;24.10;28.40;;;;;;4983491;28;45491;-83
2023/12/20 15:00:16;;;;;;;1.23;0.80;;;24.10;28.40;;;;;;5005971;28;44926;-85
2023/12/20 15:02:43;;;;;;;1.98;0.77;;;24.10;28.40;;;;;;4963104;28;45186;-80
2023/12/20 15:05:10;;;;;;;1.83;0.80;;;24.10;28.40;;;;;;4968306;28;45370;-84
2023/12/20 15:07:36;;;;;;;1.90;0.70;;;24.10;28.40;;;;;;5004416;28;47642;-83
2023/12/20 15:10:08;;;;;;;2.78;0.80;;;24.10;28.40;;;;;;4953054;28;45164;-81
2023/12/20 15:12:38;;;;;;;1.67;0.63;;;24.10;28.30;;;;;;4984408;28;45409;-82
2023/12/20 15:15:10;;;;;;;2.40;0.80;;;24.10;28.40;;;;;;4970227;28;45201;-89
2023/12/20 15:17:39;;;;;;;1.55;0.90;;;24.10;28.30;;;;;;4987448;28;45302;-80
2023/12/20 15:20:19;;;;;;;2.20;1.05;;;24.10;28.30;;;;;;4964259;28;44668;-92
2023/12/20 15:22:45;;;;;;;1.02;0.70;;;24.10;28.30;;;;;;4984979;28;44640;-82
2023/12/20 15:25:21;;;;;;;2.42;0.82;;;24.10;28.30;;;;;;4969917;28;44748;-81
2023/12/20 15:27:52;;;;;;;2.53;0.97;;;24.10;28.30;;;;;;5001875;28;44848;-79
2023/12/20 15:30:24;;;;;;;1.77;0.90;;;24.10;28.30;;;;;;4981818;28;44739;-88
2023/12/20 15:32:50;;;;;;;1.65;0.70;;;24.10;28.30;;;;;;4985429;28;45378;-80
2023/12/20 15:35:17;;;;;;;1.67;0.80;;;24.10;28.30;;;;;;4970410;28;45203;-80
2023/12/20 15:37:43;;;;;;;1.95;1.00;;;24.10;28.30;;;;;;4965310;28;45977;-81
2023/12/20 15:40:10;;;;;;;2.10;0.93;;;24.10;28.30;;;;;;4962928;28;45203;-92
2023/12/20 15:42:38;;;;;;;1.70;0.90;;;24.10;28.30;;;;;;4986914;28;45140;-80
2023/12/20 15:45:08;;;;;;;1.52;0.90;;;24.10;28.30;;;;;;4987753;28;45154;-92
2023/12/20 15:47:36;;;;;;;2.10;1.00;;;24.10;28.30;;;;;;4984632;28;46288;-82
2023/12/20 15:50:06;;;;;;;1.10;0.80;;;24.10;28.30;;;;;;4956489;28;44631;-87
2023/12/20 15:52:32;;;;;;;1.20;0.80;;;24.10;28.30;;;;;;4973470;28;45378;-80
2023/12/20 15:54:59;;;;;;;1.43;1.00;;;24.10;28.20;;;;;;4987400;28;45111;-82
2023/12/20 15:57:25;;;;;;;1.77;0.73;;;24.10;28.40;;;;;;5017376;28;47102;-80
2023/12/20 15:59:51;;;;;;;1.42;0.75;;;24.10;28.30;;;;;;4972128;28;44691;-84
2023/12/20 16:02:17;;;;;;;1.83;0.90;;;24.10;28.20;;;;;;4986792;28;45280;-87
2023/12/20 16:04:43;;;;;;;1.38;0.90;;;24.10;28.30;;;;;;4974325;28;45199;-80
2023/12/20 16:07:09;;;;;;;1.67;1.00;;;24.10;28.30;;;;;;4954738;28;45214;-80
2023/12/20 16:09:35;;;;;;;2.13;1.10;;;24.10;28.30;;;;;;4975456;28;44645;-83
2023/12/20 16:12:00;;;;;;;2.17;0.80;;;24.10;28.20;;;;;;5018408;28;44709;-80
2023/12/20 16:14:29;;;;;;;1.53;0.90;;;24.10;28.30;;;;;;4949270;28;45347;-82
2023/12/20 16:16:56;;;;;;;1.30;0.80;;;24.10;28.30;;;;;;4970558;28;46917;-83
2023/12/20 16:19:22;;;;;;;2.15;0.90;;;24.10;28.20;;;;;;5002336;28;44685;-81
2023/12/20 16:21:47;;;;;;;1.30;0.70;;;24.10;28.20;;;;;;4965299;28;44874;-81
2023/12/20 16:24:13;;;;;;;2.03;1.00;;;24.10;28.20;;;;;;4998665;28;45465;-81
2023/12/20 16:26:40;;;;;;;1.63;0.93;;;24.10;28.20;;;;;;4959932;28;45423;-84
2023/12/20 16:29:06;;;;;;;3.15;0.90;;;24.10;28.30;;;;;;4943734;28;45132;-80
2023/12/20 16:31:32;;;;;;;1.83;0.90;;;24.10;28.30;;;;;;5013825;28;45259;-80
2023/12/20 16:33:58;;;;;;;1.40;0.73;;;24.00;28.20;;;;;;4959954;28;44998;-82
2023/12/20 16:36:24;;;;;;;1.77;0.98;;;24.00;28.20;;;;;;4963997;28;45972;-81
2023/12/20 16:38:50;;;;;;;1.42;0.77;;;24.10;28.20;;;;;;4988786;28;45238;-84
2023/12/20 16:41:18;;;;;;;1.65;0.70;;;24.10;28.20;;;;;;4993525;28;45060;-80
2023/12/20 16:43:45;;;;;;;1.58;1.00;;;24.10;28.40;;;;;;4974729;28;45541;-80
2023/12/20 16:46:11;;;;;;;1.55;0.90;;;24.00;28.10;;;;;;4972749;28;45709;-84
2023/12/20 16:48:37;;;;;;;1.57;0.80;;;24.10;28.20;;;;;;4974240;28;44779;-84